sensor_id;sensor_type;location;lat;lon;timestamp;pressure;altitude;pressure_sealevel;temperature;humidity
46886;BME280;32622;48.202;11.326;2024-01-25T00:00:35;1030.45;;;6.91;36.33
46886;BME280;32622;48.202;11.326;2024-01-25T00:02:37;1030.57;;;6.68;36.23
46886;BME280;32622;48.202;11.326;2024-01-25T00:04:39;1030.52;;;6.85;36.63
46886;BME280;32622;48.202;11.326;2024-01-25T00:06:41;1030.68;;;6.15;37.54
46886;BME280;32622;48.202;11.326;2024-01-25T00:08:43;1030.73;;;5.62;37.73
46886;BME280;32622;48.202;11.326;2024-01-25T00:10:45;1030.52;;;6.15;37.69
46886;BME280;32622;48.202;11.326;2024-01-25T00:12:48;1030.69;;;5.92;38.28
46886;BME280;32622;48.202;11.326;2024-01-25T00:14:50;1030.55;;;6.36;38.11
46886;BME280;32622;48.202;11.326;2024-01-25T00:16:52;1030.55;;;6.07;38.68
46886;BME280;32622;48.202;11.326;2024-01-25T00:18:54;1030.49;;;6.44;38.33
46886;BME280;32622;48.202;11.326;2024-01-25T00:20:56;1030.65;;;5.98;38.84
46886;BME280;32622;48.202;11.326;2024-01-25T00:22:58;1030.63;;;5.90;39.03
46886;BME280;32622;48.202;11.326;2024-01-25T00:25:01;1030.63;;;5.71;39.79
46886;BME280;32622;48.202;11.326;2024-01-25T00:27:03;1030.81;;;5.22;41.01
46886;BME280;32622;48.202;11.326;2024-01-25T00:29:06;1030.64;;;5.62;40.15
46886;BME280;32622;48.202;11.326;2024-01-25T00:31:08;1030.59;;;5.92;40.17
46886;BME280;32622;48.202;11.326;2024-01-25T00:33:10;1030.73;;;5.22;40.56
46886;BME280;32622;48.202;11.326;2024-01-25T00:35:13;1030.72;;;5.39;40.79
46886;BME280;32622;48.202;11.326;2024-01-25T00:37:17;1030.60;;;5.85;40.22
46886;BME280;32622;48.202;11.326;2024-01-25T00:39:20;1030.52;;;5.78;39.50
46886;BME280;32622;48.202;11.326;2024-01-25T00:41:23;1030.37;;;6.27;39.12
46886;BME280;32622;48.202;11.326;2024-01-25T00:43:26;1030.52;;;5.54;39.97
46886;BME280;32622;48.202;11.326;2024-01-25T00:45:28;1030.50;;;5.48;39.99
46886;BME280;32622;48.202;11.326;2024-01-25T00:47:31;1030.62;;;4.71;40.76
46886;BME280;32622;48.202;11.326;2024-01-25T00:49:34;1030.41;;;5.57;40.04
46886;BME280;32622;48.202;11.326;2024-01-25T00:51:37;1030.83;;;4.27;41.42
46886;BME280;32622;48.202;11.326;2024-01-25T00:53:40;1030.71;;;4.57;41.45
46886;BME280;32622;48.202;11.326;2024-01-25T00:55:42;1030.61;;;5.00;41.00
46886;BME280;32622;48.202;11.326;2024-01-25T00:57:45;1030.55;;;5.03;40.42
46886;BME280;32622;48.202;11.326;2024-01-25T00:59:48;1030.41;;;5.73;40.07
46886;BME280;32622;48.202;11.326;2024-01-25T01:01:53;1030.47;;;5.51;39.60
46886;BME280;32622;48.202;11.326;2024-01-25T01:03:55;1030.60;;;4.98;40.20
46886;BME280;32622;48.202;11.326;2024-01-25T01:06:00;1030.51;;;5.29;39.89
46886;BME280;32622;48.202;11.326;2024-01-25T01:08:03;1030.47;;;5.56;39.27
46886;BME280;32622;48.202;11.326;2024-01-25T01:10:06;1030.41;;;5.88;39.40
46886;BME280;32622;48.202;11.326;2024-01-25T01:12:09;1030.66;;;5.27;40.21
46886;BME280;32622;48.202;11.326;2024-01-25T01:14:11;1030.78;;;4.86;40.73
46886;BME280;32622;48.202;11.326;2024-01-25T01:16:13;1030.82;;;4.93;40.53
46886;BME280;32622;48.202;11.326;2024-01-25T01:18:15;1030.62;;;5.63;39.81
46886;BME280;32622;48.202;11.326;2024-01-25T01:20:18;1030.86;;;4.73;40.53
46886;BME280;32622;48.202;11.326;2024-01-25T01:22:20;1031.08;;;4.27;40.94
46886;BME280;32622;48.202;11.326;2024-01-25T01:24:22;1030.90;;;5.22;40.26
46886;BME280;32622;48.202;11.326;2024-01-25T01:26:24;1030.87;;;5.11;39.98
46886;BME280;32622;48.202;11.326;2024-01-25T01:28:26;1031.11;;;4.30;41.23
46886;BME280;32622;48.202;11.326;2024-01-25T01:30:29;1030.98;;;4.65;41.09
46886;BME280;32622;48.202;11.326;2024-01-25T01:32:31;1030.98;;;4.66;40.79
46886;BME280;32622;48.202;11.326;2024-01-25T01:34:33;1030.65;;;5.58;39.54
46886;BME280;32622;48.202;11.326;2024-01-25T01:36:35;1030.49;;;5.95;39.16
46886;BME280;32622;48.202;11.326;2024-01-25T01:38:37;1030.57;;;5.63;38.65
46886;BME280;32622;48.202;11.326;2024-01-25T01:40:39;1030.52;;;5.80;38.43
46886;BME280;32622;48.202;11.326;2024-01-25T01:42:41;1030.62;;;5.78;38.03
46886;BME280;32622;48.202;11.326;2024-01-25T01:44:43;1030.62;;;5.70;38.67
46886;BME280;32622;48.202;11.326;2024-01-25T01:46:47;1030.54;;;5.77;38.69
46886;BME280;32622;48.202;11.326;2024-01-25T01:48:49;1030.55;;;5.86;38.72
46886;BME280;32622;48.202;11.326;2024-01-25T01:50:51;1030.65;;;5.55;39.39
46886;BME280;32622;48.202;11.326;2024-01-25T01:52:54;1030.72;;;5.15;39.43
46886;BME280;32622;48.202;11.326;2024-01-25T01:54:56;1030.57;;;5.77;39.72
46886;BME280;32622;48.202;11.326;2024-01-25T01:56:59;1030.57;;;5.72;38.72
46886;BME280;32622;48.202;11.326;2024-01-25T01:59:04;1030.46;;;6.45;37.98
46886;BME280;32622;48.202;11.326;2024-01-25T02:01:06;1030.50;;;6.01;38.42
46886;BME280;32622;48.202;11.326;2024-01-25T02:03:08;1030.56;;;5.62;39.07
46886;BME280;32622;48.202;11.326;2024-01-25T02:05:10;1030.59;;;5.50;39.02
46886;BME280;32622;48.202;11.326;2024-01-25T02:07:13;1030.44;;;5.72;38.89
46886;BME280;32622;48.202;11.326;2024-01-25T02:09:15;1030.39;;;6.07;38.59
46886;BME280;32622;48.202;11.326;2024-01-25T02:11:18;1030.44;;;5.82;38.55
46886;BME280;32622;48.202;11.326;2024-01-25T02:13:21;1030.41;;;5.95;39.04
46886;BME280;32622;48.202;11.326;2024-01-25T02:15:23;1030.25;;;6.31;38.36
46886;BME280;32622;48.202;11.326;2024-01-25T02:17:25;1030.38;;;5.77;39.08
46886;BME280;32622;48.202;11.326;2024-01-25T02:19:27;1030.49;;;5.49;39.14
46886;BME280;32622;48.202;11.326;2024-01-25T02:21:29;1030.39;;;6.06;38.62
46886;BME280;32622;48.202;11.326;2024-01-25T02:23:31;1030.32;;;6.51;38.06
46886;BME280;32622;48.202;11.326;2024-01-25T02:25:33;1030.51;;;5.89;38.79
46886;BME280;32622;48.202;11.326;2024-01-25T02:27:36;1030.55;;;5.67;38.64
46886;BME280;32622;48.202;11.326;2024-01-25T02:29:38;1030.48;;;5.96;38.22
46886;BME280;32622;48.202;11.326;2024-01-25T02:31:40;1030.34;;;6.32;38.16
46886;BME280;32622;48.202;11.326;2024-01-25T02:33:42;1030.34;;;6.24;38.46
46886;BME280;32622;48.202;11.326;2024-01-25T02:35:44;1030.38;;;5.87;38.19
46886;BME280;32622;48.202;11.326;2024-01-25T02:37:47;1030.29;;;6.06;38.45
46886;BME280;32622;48.202;11.326;2024-01-25T02:39:50;1030.32;;;5.99;38.56
46886;BME280;32622;48.202;11.326;2024-01-25T02:41:52;1030.49;;;5.30;39.53
46886;BME280;32622;48.202;11.326;2024-01-25T02:43:54;1030.41;;;5.48;39.44
46886;BME280;32622;48.202;11.326;2024-01-25T02:45:56;1030.28;;;6.04;39.25
46886;BME280;32622;48.202;11.326;2024-01-25T02:47:58;1030.48;;;5.53;39.08
46886;BME280;32622;48.202;11.326;2024-01-25T02:50:01;1030.25;;;6.58;38.24
46886;BME280;32622;48.202;11.326;2024-01-25T02:52:03;1030.37;;;6.05;38.72
46886;BME280;32622;48.202;11.326;2024-01-25T02:54:05;1030.25;;;6.40;37.96
46886;BME280;32622;48.202;11.326;2024-01-25T02:56:07;1030.36;;;6.07;38.83
46886;BME280;32622;48.202;11.326;2024-01-25T02:58:10;1030.74;;;4.60;41.52
46886;BME280;32622;48.202;11.326;2024-01-25T03:00:13;1030.64;;;4.75;41.16
46886;BME280;32622;48.202;11.326;2024-01-25T03:02:15;1030.38;;;5.53;39.81
46886;BME280;32622;48.202;11.326;2024-01-25T03:04:17;1030.40;;;5.33;39.97
46886;BME280;32622;48.202;11.326;2024-01-25T03:06:20;1030.39;;;5.63;39.90
46886;BME280;32622;48.202;11.326;2024-01-25T03:08:22;1030.43;;;5.38;40.05
46886;BME280;32622;48.202;11.326;2024-01-25T03:10:24;1030.28;;;5.97;39.42
46886;BME280;32622;48.202;11.326;2024-01-25T03:12:26;1030.24;;;6.12;38.92
46886;BME280;32622;48.202;11.326;2024-01-25T03:14:28;1030.31;;;5.90;39.14
46886;BME280;32622;48.202;11.326;2024-01-25T03:16:30;1030.20;;;6.30;39.03
46886;BME280;32622;48.202;11.326;2024-01-25T03:18:33;1030.24;;;6.25;38.40
46886;BME280;32622;48.202;11.326;2024-01-25T03:20:35;1030.26;;;6.09;38.89
46886;BME280;32622;48.202;11.326;2024-01-25T03:22:37;1030.36;;;5.60;39.99
46886;BME280;32622;48.202;11.326;2024-01-25T03:24:39;1030.23;;;5.61;39.71
46886;BME280;32622;48.202;11.326;2024-01-25T03:26:41;1030.10;;;5.81;39.60
46886;BME280;32622;48.202;11.326;2024-01-25T03:28:43;1029.96;;;6.27;39.00
46886;BME280;32622;48.202;11.326;2024-01-25T03:30:45;1030.19;;;5.45;40.54
46886;BME280;32622;48.202;11.326;2024-01-25T03:32:47;1030.12;;;5.57;40.40
46886;BME280;32622;48.202;11.326;2024-01-25T03:34:50;1030.24;;;4.94;41.20
46886;BME280;32622;48.202;11.326;2024-01-25T03:36:52;1030.03;;;5.60;39.82
46886;BME280;32622;48.202;11.326;2024-01-25T03:38:54;1030.00;;;5.74;39.61
46886;BME280;32622;48.202;11.326;2024-01-25T03:40:56;1030.30;;;4.70;41.83
46886;BME280;32622;48.202;11.326;2024-01-25T03:42:58;1030.35;;;4.70;42.43
46886;BME280;32622;48.202;11.326;2024-01-25T03:45:00;1030.43;;;4.45;42.30
46886;BME280;32622;48.202;11.326;2024-01-25T03:47:03;1030.34;;;4.83;41.66
46886;BME280;32622;48.202;11.326;2024-01-25T03:49:05;1030.38;;;4.87;41.71
46886;BME280;32622;48.202;11.326;2024-01-25T03:51:07;1030.32;;;5.30;41.11
46886;BME280;32622;48.202;11.326;2024-01-25T03:53:09;1030.25;;;5.25;41.14
46886;BME280;32622;48.202;11.326;2024-01-25T03:55:11;1030.27;;;5.10;40.78
46886;BME280;32622;48.202;11.326;2024-01-25T03:57:13;1030.29;;;5.22;40.81
46886;BME280;32622;48.202;11.326;2024-01-25T03:59:15;1030.29;;;5.35;40.40
46886;BME280;32622;48.202;11.326;2024-01-25T04:01:17;1030.31;;;5.53;40.49
46886;BME280;32622;48.202;11.326;2024-01-25T04:03:19;1030.35;;;5.43;40.72
46886;BME280;32622;48.202;11.326;2024-01-25T04:05:22;1030.63;;;4.77;41.58
46886;BME280;32622;48.202;11.326;2024-01-25T04:07:24;1030.45;;;5.31;41.20
46886;BME280;32622;48.202;11.326;2024-01-25T04:09:26;1030.48;;;5.06;40.33
46886;BME280;32622;48.202;11.326;2024-01-25T04:11:28;1030.33;;;5.71;40.10
46886;BME280;32622;48.202;11.326;2024-01-25T04:13:30;1030.31;;;5.84;39.56
46886;BME280;32622;48.202;11.326;2024-01-25T04:15:32;1030.35;;;5.61;39.78
46886;BME280;32622;48.202;11.326;2024-01-25T04:17:34;1030.37;;;5.72;39.64
46886;BME280;32622;48.202;11.326;2024-01-25T04:19:37;1030.60;;;5.09;41.10
46886;BME280;32622;48.202;11.326;2024-01-25T04:21:39;1030.54;;;5.35;41.45
46886;BME280;32622;48.202;11.326;2024-01-25T04:23:41;1030.75;;;4.72;42.70
46886;BME280;32622;48.202;11.326;2024-01-25T04:25:43;1030.87;;;4.41;42.73
46886;BME280;32622;48.202;11.326;2024-01-25T04:27:45;1030.80;;;4.90;42.30
46886;BME280;32622;48.202;11.326;2024-01-25T04:29:47;1030.83;;;4.95;42.11
46886;BME280;32622;48.202;11.326;2024-01-25T04:31:49;1030.81;;;5.11;41.91
46886;BME280;32622;48.202;11.326;2024-01-25T04:33:52;1030.81;;;5.36;41.65
46886;BME280;32622;48.202;11.326;2024-01-25T04:35:54;1030.89;;;5.08;42.15
46886;BME280;32622;48.202;11.326;2024-01-25T04:37:56;1030.87;;;5.31;41.94
46886;BME280;32622;48.202;11.326;2024-01-25T04:39:58;1031.13;;;4.88;41.82
46886;BME280;32622;48.202;11.326;2024-01-25T04:42:00;1030.99;;;5.37;41.39
46886;BME280;32622;48.202;11.326;2024-01-25T04:44:02;1031.06;;;5.06;41.46
46886;BME280;32622;48.202;11.326;2024-01-25T04:46:04;1030.98;;;5.39;41.06
46886;BME280;32622;48.202;11.326;2024-01-25T04:48:07;1030.96;;;5.51;40.75
46886;BME280;32622;48.202;11.326;2024-01-25T04:50:09;1031.30;;;4.52;42.71
46886;BME280;32622;48.202;11.326;2024-01-25T04:52:12;1031.26;;;4.65;42.19
46886;BME280;32622;48.202;11.326;2024-01-25T04:54:14;1031.13;;;5.23;42.07
46886;BME280;32622;48.202;11.326;2024-01-25T04:56:16;1031.13;;;5.20;42.18
46886;BME280;32622;48.202;11.326;2024-01-25T04:58:18;1031.25;;;4.96;42.48
46886;BME280;32622;48.202;11.326;2024-01-25T05:00:21;1031.22;;;5.40;42.09
46886;BME280;32622;48.202;11.326;2024-01-25T05:02:24;1031.23;;;5.17;41.75
46886;BME280;32622;48.202;11.326;2024-01-25T05:04:26;1031.17;;;5.41;41.07
46886;BME280;32622;48.202;11.326;2024-01-25T05:06:29;1031.20;;;5.46;40.94
46886;BME280;32622;48.202;11.326;2024-01-25T05:08:31;1031.41;;;4.92;41.48
46886;BME280;32622;48.202;11.326;2024-01-25T05:10:33;1031.51;;;4.68;41.85
46886;BME280;32622;48.202;11.326;2024-01-25T05:12:35;1031.47;;;4.96;42.21
46886;BME280;32622;48.202;11.326;2024-01-25T05:14:37;1031.32;;;5.52;41.31
46886;BME280;32622;48.202;11.326;2024-01-25T05:16:39;1031.30;;;5.60;41.01
46886;BME280;32622;48.202;11.326;2024-01-25T05:18:42;1031.23;;;5.85;41.24
46886;BME280;32622;48.202;11.326;2024-01-25T05:20:44;1031.51;;;4.76;42.84
46886;BME280;32622;48.202;11.326;2024-01-25T05:22:46;1031.40;;;5.17;41.66
46886;BME280;32622;48.202;11.326;2024-01-25T05:24:48;1031.51;;;5.03;41.78
46886;BME280;32622;48.202;11.326;2024-01-25T05:26:50;1031.51;;;4.92;42.20
46886;BME280;32622;48.202;11.326;2024-01-25T05:28:52;1031.43;;;4.91;42.48
46886;BME280;32622;48.202;11.326;2024-01-25T05:30:54;1031.37;;;5.33;42.07
46886;BME280;32622;48.202;11.326;2024-01-25T05:32:56;1031.66;;;4.09;43.85
46886;BME280;32622;48.202;11.326;2024-01-25T05:34:59;1031.46;;;5.25;42.24
46886;BME280;32622;48.202;11.326;2024-01-25T05:37:01;1031.43;;;5.27;41.58
46886;BME280;32622;48.202;11.326;2024-01-25T05:39:03;1031.40;;;5.23;41.78
46886;BME280;32622;48.202;11.326;2024-01-25T05:41:05;1031.29;;;5.36;41.04
46886;BME280;32622;48.202;11.326;2024-01-25T05:43:07;1031.51;;;5.03;41.44
46886;BME280;32622;48.202;11.326;2024-01-25T05:45:10;1031.42;;;5.26;41.51
46886;BME280;32622;48.202;11.326;2024-01-25T05:47:12;1031.59;;;4.79;41.66
46886;BME280;32622;48.202;11.326;2024-01-25T05:49:14;1031.55;;;5.15;41.55
46886;BME280;32622;48.202;11.326;2024-01-25T05:51:17;1031.53;;;5.53;40.96
46886;BME280;32622;48.202;11.326;2024-01-25T05:53:19;1031.65;;;5.24;41.37
46886;BME280;32622;48.202;11.326;2024-01-25T05:55:21;1031.75;;;4.97;41.66
46886;BME280;32622;48.202;11.326;2024-01-25T05:57:23;1031.74;;;5.21;41.45
46886;BME280;32622;48.202;11.326;2024-01-25T05:59:25;1031.86;;;4.78;41.66
46886;BME280;32622;48.202;11.326;2024-01-25T06:01:27;1031.84;;;5.18;41.85
46886;BME280;32622;48.202;11.326;2024-01-25T06:03:29;1031.92;;;5.12;41.26
46886;BME280;32622;48.202;11.326;2024-01-25T06:05:31;1031.88;;;5.55;41.34
46886;BME280;32622;48.202;11.326;2024-01-25T06:07:33;1031.99;;;5.20;41.19
46886;BME280;32622;48.202;11.326;2024-01-25T06:09:36;1031.89;;;5.58;40.80
46886;BME280;32622;48.202;11.326;2024-01-25T06:11:38;1031.97;;;5.06;41.01
46886;BME280;32622;48.202;11.326;2024-01-25T06:13:40;1031.82;;;5.86;40.19
46886;BME280;32622;48.202;11.326;2024-01-25T06:15:42;1031.86;;;5.77;40.09
46886;BME280;32622;48.202;11.326;2024-01-25T06:17:44;1032.12;;;5.13;40.10
46886;BME280;32622;48.202;11.326;2024-01-25T06:19:47;1032.08;;;5.62;39.94
46886;BME280;32622;48.202;11.326;2024-01-25T06:21:50;1032.01;;;5.88;39.64
46886;BME280;32622;48.202;11.326;2024-01-25T06:23:52;1032.09;;;5.87;39.79
46886;BME280;32622;48.202;11.326;2024-01-25T06:25:54;1032.21;;;5.54;39.97
46886;BME280;32622;48.202;11.326;2024-01-25T06:27:56;1032.39;;;4.89;40.45
46886;BME280;32622;48.202;11.326;2024-01-25T06:29:59;1032.25;;;5.45;40.42
46886;BME280;32622;48.202;11.326;2024-01-25T06:32:01;1032.38;;;5.05;40.49
46886;BME280;32622;48.202;11.326;2024-01-25T06:34:03;1032.32;;;5.35;39.85
46886;BME280;32622;48.202;11.326;2024-01-25T06:36:06;1032.32;;;5.60;38.82
46886;BME280;32622;48.202;11.326;2024-01-25T06:38:08;1032.35;;;5.55;38.98
46886;BME280;32622;48.202;11.326;2024-01-25T06:40:11;1032.39;;;5.62;39.10
46886;BME280;32622;48.202;11.326;2024-01-25T06:42:13;1032.40;;;5.74;38.92
46886;BME280;32622;48.202;11.326;2024-01-25T06:44:15;1032.47;;;5.42;38.97
46886;BME280;32622;48.202;11.326;2024-01-25T06:46:17;1032.47;;;5.73;38.42
46886;BME280;32622;48.202;11.326;2024-01-25T06:48:19;1032.39;;;6.12;37.87
46886;BME280;32622;48.202;11.326;2024-01-25T06:50:21;1032.44;;;6.08;37.61
46886;BME280;32622;48.202;11.326;2024-01-25T06:52:24;1032.25;;;6.53;37.12
46886;BME280;32622;48.202;11.326;2024-01-25T06:54:26;1032.55;;;5.63;37.52
46886;BME280;32622;48.202;11.326;2024-01-25T06:56:28;1032.38;;;6.27;36.94
46886;BME280;32622;48.202;11.326;2024-01-25T06:58:30;1032.67;;;5.38;37.74
46886;BME280;32622;48.202;11.326;2024-01-25T07:00:32;1032.62;;;5.63;37.55
46886;BME280;32622;48.202;11.326;2024-01-25T07:02:34;1032.56;;;5.96;37.63
46886;BME280;32622;48.202;11.326;2024-01-25T07:04:36;1032.73;;;5.31;37.31
46886;BME280;32622;48.202;11.326;2024-01-25T07:06:38;1032.65;;;5.87;37.38
46886;BME280;32622;48.202;11.326;2024-01-25T07:08:40;1032.60;;;6.10;37.05
46886;BME280;32622;48.202;11.326;2024-01-25T07:10:43;1032.74;;;5.57;37.13
46886;BME280;32622;48.202;11.326;2024-01-25T07:12:45;1032.78;;;5.51;37.00
46886;BME280;32622;48.202;11.326;2024-01-25T07:14:48;1032.69;;;5.99;37.01
46886;BME280;32622;48.202;11.326;2024-01-25T07:16:50;1032.71;;;6.17;36.73
46886;BME280;32622;48.202;11.326;2024-01-25T07:18:52;1032.77;;;5.91;36.96
46886;BME280;32622;48.202;11.326;2024-01-25T07:20:54;1032.89;;;5.40;37.83
46886;BME280;32622;48.202;11.326;2024-01-25T07:22:56;1032.87;;;5.70;37.34
46886;BME280;32622;48.202;11.326;2024-01-25T07:24:59;1032.97;;;5.48;37.22
46886;BME280;32622;48.202;11.326;2024-01-25T07:27:01;1032.91;;;5.85;37.18
46886;BME280;32622;48.202;11.326;2024-01-25T07:29:03;1032.99;;;5.67;36.96
46886;BME280;32622;48.202;11.326;2024-01-25T07:31:05;1032.98;;;5.88;36.95
46886;BME280;32622;48.202;11.326;2024-01-25T07:33:07;1033.01;;;5.82;36.95
46886;BME280;32622;48.202;11.326;2024-01-25T07:35:09;1032.94;;;5.89;36.92
46886;BME280;32622;48.202;11.326;2024-01-25T07:37:12;1032.90;;;5.99;36.82
46886;BME280;32622;48.202;11.326;2024-01-25T07:39:14;1032.72;;;6.42;36.33
46886;BME280;32622;48.202;11.326;2024-01-25T07:41:16;1032.91;;;6.05;36.77
46886;BME280;32622;48.202;11.326;2024-01-25T07:43:18;1032.96;;;6.07;37.20
46886;BME280;32622;48.202;11.326;2024-01-25T07:45:20;1032.91;;;6.55;36.68
46886;BME280;32622;48.202;11.326;2024-01-25T07:47:22;1032.93;;;6.55;36.04
46886;BME280;32622;48.202;11.326;2024-01-25T07:49:25;1032.97;;;6.54;35.70
46886;BME280;32622;48.202;11.326;2024-01-25T07:51:27;1033.19;;;5.98;36.33
46886;BME280;32622;48.202;11.326;2024-01-25T07:53:29;1032.96;;;6.67;36.06
46886;BME280;32622;48.202;11.326;2024-01-25T07:55:31;1033.01;;;6.40;36.02
46886;BME280;32622;48.202;11.326;2024-01-25T07:57:33;1032.99;;;6.32;35.96
46886;BME280;32622;48.202;11.326;2024-01-25T07:59:35;1033.07;;;6.17;36.59
46886;BME280;32622;48.202;11.326;2024-01-25T08:01:38;1033.05;;;6.42;36.67
46886;BME280;32622;48.202;11.326;2024-01-25T08:03:40;1033.23;;;5.78;36.65
46886;BME280;32622;48.202;11.326;2024-01-25T08:05:42;1033.08;;;6.72;36.25
46886;BME280;32622;48.202;11.326;2024-01-25T08:07:45;1032.98;;;6.77;35.68
46886;BME280;32622;48.202;11.326;2024-01-25T08:09:48;1033.19;;;6.17;36.31
46886;BME280;32622;48.202;11.326;2024-01-25T08:11:50;1033.28;;;5.79;36.71
46886;BME280;32622;48.202;11.326;2024-01-25T08:13:52;1033.19;;;6.19;36.51
46886;BME280;32622;48.202;11.326;2024-01-25T08:15:54;1033.23;;;6.08;36.49
46886;BME280;32622;48.202;11.326;2024-01-25T08:17:56;1033.24;;;6.13;36.37
46886;BME280;32622;48.202;11.326;2024-01-25T08:19:58;1033.34;;;6.16;36.70
46886;BME280;32622;48.202;11.326;2024-01-25T08:22:00;1033.30;;;6.45;37.01
46886;BME280;32622;48.202;11.326;2024-01-25T08:24:03;1033.32;;;6.42;36.93
46886;BME280;32622;48.202;11.326;2024-01-25T08:26:06;1033.39;;;5.79;37.09
46886;BME280;32622;48.202;11.326;2024-01-25T08:28:08;1033.28;;;5.99;37.46
46886;BME280;32622;48.202;11.326;2024-01-25T08:30:11;1033.27;;;5.91;37.72
46886;BME280;32622;48.202;11.326;2024-01-25T08:32:13;1033.24;;;6.15;37.80
46886;BME280;32622;48.202;11.326;2024-01-25T08:34:15;1033.26;;;5.93;37.52
46886;BME280;32622;48.202;11.326;2024-01-25T08:36:18;1033.22;;;6.17;37.05
46886;BME280;32622;48.202;11.326;2024-01-25T08:38:20;1033.17;;;6.36;37.25
46886;BME280;32622;48.202;11.326;2024-01-25T08:40:22;1033.26;;;5.90;37.29
46886;BME280;32622;48.202;11.326;2024-01-25T08:42:24;1033.40;;;5.18;37.49
46886;BME280;32622;48.202;11.326;2024-01-25T08:44:26;1033.35;;;5.31;37.82
46886;BME280;32622;48.202;11.326;2024-01-25T08:46:28;1033.34;;;5.21;37.79
46886;BME280;32622;48.202;11.326;2024-01-25T08:48:30;1033.18;;;5.48;37.84
46886;BME280;32622;48.202;11.326;2024-01-25T08:50:33;1033.09;;;5.59;36.93
46886;BME280;32622;48.202;11.326;2024-01-25T08:52:35;1033.07;;;5.74;36.26
46886;BME280;32622;48.202;11.326;2024-01-25T08:54:37;1033.15;;;5.59;36.28
46886;BME280;32622;48.202;11.326;2024-01-25T08:56:39;1033.26;;;4.96;36.74
46886;BME280;32622;48.202;11.326;2024-01-25T08:58:41;1033.34;;;4.99;37.18
46886;BME280;32622;48.202;11.326;2024-01-25T09:00:43;1033.33;;;5.03;36.93
46886;BME280;32622;48.202;11.326;2024-01-25T09:02:45;1033.33;;;5.14;36.78
46886;BME280;32622;48.202;11.326;2024-01-25T09:04:48;1033.50;;;5.11;36.72
46886;BME280;32622;48.202;11.326;2024-01-25T09:06:50;1033.57;;;5.20;36.34
46886;BME280;32622;48.202;11.326;2024-01-25T09:08:52;1033.54;;;5.44;35.76
46886;BME280;32622;48.202;11.326;2024-01-25T09:10:54;1033.44;;;6.14;35.12
46886;BME280;32622;48.202;11.326;2024-01-25T09:12:56;1033.59;;;5.40;35.90
46886;BME280;32622;48.202;11.326;2024-01-25T09:14:58;1033.57;;;5.63;34.93
46886;BME280;32622;48.202;11.326;2024-01-25T09:17:00;1033.65;;;5.59;34.73
46886;BME280;32622;48.202;11.326;2024-01-25T09:19:02;1033.66;;;5.72;34.77
46886;BME280;32622;48.202;11.326;2024-01-25T09:21:04;1033.65;;;5.73;34.90
46886;BME280;32622;48.202;11.326;2024-01-25T09:23:07;1033.76;;;5.49;35.32
46886;BME280;32622;48.202;11.326;2024-01-25T09:25:09;1033.57;;;5.97;35.66
46886;BME280;32622;48.202;11.326;2024-01-25T09:27:11;1033.73;;;5.62;35.45
46886;BME280;32622;48.202;11.326;2024-01-25T09:29:13;1033.71;;;5.83;35.30
46886;BME280;32622;48.202;11.326;2024-01-25T09:31:15;1033.90;;;5.18;36.01
46886;BME280;32622;48.202;11.326;2024-01-25T09:33:17;1033.93;;;5.18;36.39
46886;BME280;32622;48.202;11.326;2024-01-25T09:35:19;1033.96;;;5.18;36.08
46886;BME280;32622;48.202;11.326;2024-01-25T09:37:21;1033.76;;;5.71;36.18
46886;BME280;32622;48.202;11.326;2024-01-25T09:39:23;1033.89;;;5.25;36.13
46886;BME280;32622;48.202;11.326;2024-01-25T09:41:25;1033.83;;;5.47;35.09
46886;BME280;32622;48.202;11.326;2024-01-25T09:43:27;1033.81;;;5.21;35.60
46886;BME280;32622;48.202;11.326;2024-01-25T09:45:31;1033.78;;;5.90;35.31
46886;BME280;32622;48.202;11.326;2024-01-25T09:47:33;1033.91;;;5.16;35.07
46886;BME280;32622;48.202;11.326;2024-01-25T09:49:35;1033.78;;;5.92;35.02
46886;BME280;32622;48.202;11.326;2024-01-25T09:51:39;1033.68;;;6.45;35.13
46886;BME280;32622;48.202;11.326;2024-01-25T09:53:42;1033.80;;;5.62;34.99
46886;BME280;32622;48.202;11.326;2024-01-25T09:55:45;1033.69;;;6.28;33.77
46886;BME280;32622;48.202;11.326;2024-01-25T09:57:53;1033.82;;;5.91;33.92
46886;BME280;32622;48.202;11.326;2024-01-25T09:59:56;1033.83;;;6.06;34.20
46886;BME280;32622;48.202;11.326;2024-01-25T10:01:59;1033.88;;;5.90;34.10
46886;BME280;32622;48.202;11.326;2024-01-25T10:04:06;1033.88;;;6.04;33.32
46886;BME280;32622;48.202;11.326;2024-01-25T10:06:09;1033.80;;;6.69;33.25
46886;BME280;32622;48.202;11.326;2024-01-25T10:08:12;1033.95;;;6.09;33.03
46886;BME280;32622;48.202;11.326;2024-01-25T10:10:15;1033.78;;;6.73;33.13
46886;BME280;32622;48.202;11.326;2024-01-25T10:12:17;1033.85;;;6.42;32.59
46886;BME280;32622;48.202;11.326;2024-01-25T10:14:19;1033.92;;;6.11;33.72
46886;BME280;32622;48.202;11.326;2024-01-25T10:16:21;1033.87;;;6.47;33.47
46886;BME280;32622;48.202;11.326;2024-01-25T10:18:24;1033.90;;;6.38;33.69
46886;BME280;32622;48.202;11.326;2024-01-25T10:20:27;1033.91;;;6.21;32.84
46886;BME280;32622;48.202;11.326;2024-01-25T10:22:32;1033.81;;;6.40;33.28
46886;BME280;32622;48.202;11.326;2024-01-25T10:24:35;1033.89;;;6.09;33.81
46886;BME280;32622;48.202;11.326;2024-01-25T10:26:37;1033.85;;;6.04;33.76
46886;BME280;32622;48.202;11.326;2024-01-25T10:28:39;1033.86;;;6.00;32.99
46886;BME280;32622;48.202;11.326;2024-01-25T10:30:41;1033.64;;;6.66;32.41
46886;BME280;32622;48.202;11.326;2024-01-25T10:32:43;1033.77;;;6.23;32.02
46886;BME280;32622;48.202;11.326;2024-01-25T10:34:49;1033.71;;;6.65;31.60
46886;BME280;32622;48.202;11.326;2024-01-25T10:36:52;1033.65;;;6.80;31.75
46886;BME280;32622;48.202;11.326;2024-01-25T10:38:55;1033.47;;;7.41;30.86
46886;BME280;32622;48.202;11.326;2024-01-25T10:41:00;1033.55;;;6.87;31.10
46886;BME280;32622;48.202;11.326;2024-01-25T10:43:02;1033.57;;;6.88;31.50
46886;BME280;32622;48.202;11.326;2024-01-25T10:45:07;1033.49;;;7.07;30.57
46886;BME280;32622;48.202;11.326;2024-01-25T10:47:09;1033.55;;;6.63;31.41
46886;BME280;32622;48.202;11.326;2024-01-25T10:49:11;1033.28;;;7.21;31.09
46886;BME280;32622;48.202;11.326;2024-01-25T10:51:14;1033.49;;;6.47;31.36
46886;BME280;32622;48.202;11.326;2024-01-25T10:53:17;1033.28;;;7.01;31.70
46886;BME280;32622;48.202;11.326;2024-01-25T10:55:20;1033.38;;;6.63;31.62